sensor_id;sensor_type;location;lat;lon;timestamp;temperature;humidity
16384;DHT22;8301;51.440;6.610;2023-01-23T00:01:42;1.90;99.90
16384;DHT22;8301;51.440;6.610;2023-01-23T00:04:12;1.90;99.90
16384;DHT22;8301;51.440;6.610;2023-01-23T00:06:40;1.90;99.90
16384;DHT22;8301;51.440;6.610;2023-01-23T00:09:09;1.90;99.90
16384;DHT22;8301;51.440;6.610;2023-01-23T00:11:37;1.90;99.90
16384;DHT22;8301;51.440;6.610;2023-01-23T00:14:05;1.90;99.90
16384;DHT22;8301;51.440;6.610;2023-01-23T00:16:33;1.90;99.90
16384;DHT22;8301;51.440;6.610;2023-01-23T00:19:01;1.90;99.90
16384;DHT22;8301;51.440;6.610;2023-01-23T00:21:30;1.90;99.90
16384;DHT22;8301;51.440;6.610;2023-01-23T00:23:59;1.90;99.90
16384;DHT22;8301;51.440;6.610;2023-01-23T00:26:28;2.00;99.90
16384;DHT22;8301;51.440;6.610;2023-01-23T00:28:58;2.00;99.90
16384;DHT22;8301;51.440;6.610;2023-01-23T00:31:28;2.00;99.90
16384;DHT22;8301;51.440;6.610;2023-01-23T00:33:58;2.00;99.90
16384;DHT22;8301;51.440;6.610;2023-01-23T00:36:37;1.90;99.90
16384;DHT22;8301;51.440;6.610;2023-01-23T00:39:00;2.00;99.90
16384;DHT22;8301;51.440;6.610;2023-01-23T00:41:28;2.00;99.90
16384;DHT22;8301;51.440;6.610;2023-01-23T00:43:55;2.00;99.90
16384;DHT22;8301;51.440;6.610;2023-01-23T00:46:24;2.00;99.90
16384;DHT22;8301;51.440;6.610;2023-01-23T00:48:52;1.90;99.90
16384;DHT22;8301;51.440;6.610;2023-01-23T00:51:20;1.90;99.90
16384;DHT22;8301;51.440;6.610;2023-01-23T00:53:48;1.90;99.90
16384;DHT22;8301;51.440;6.610;2023-01-23T00:56:16;1.90;99.90
16384;DHT22;8301;51.440;6.610;2023-01-23T00:58:44;2.00;99.90
16384;DHT22;8301;51.440;6.610;2023-01-23T01:01:13;1.90;99.90
16384;DHT22;8301;51.440;6.610;2023-01-23T01:03:43;1.90;99.90
16384;DHT22;8301;51.440;6.610;2023-01-23T01:06:13;1.90;99.90
16384;DHT22;8301;51.440;6.610;2023-01-23T01:08:41;1.90;99.90
16384;DHT22;8301;51.440;6.610;2023-01-23T01:11:09;1.90;99.90
16384;DHT22;8301;51.440;6.610;2023-01-23T01:13:36;1.90;99.90
16384;DHT22;8301;51.440;6.610;2023-01-23T01:16:05;1.90;99.90
16384;DHT22;8301;51.440;6.610;2023-01-23T01:18:33;1.90;99.90
16384;DHT22;8301;51.440;6.610;2023-01-23T01:21:02;2.00;99.90
16384;DHT22;8301;51.440;6.610;2023-01-23T01:23:29;1.90;99.90
16384;DHT22;8301;51.440;6.610;2023-01-23T01:25:59;2.00;99.90
16384;DHT22;8301;51.440;6.610;2023-01-23T01:28:27;2.00;99.90
16384;DHT22;8301;51.440;6.610;2023-01-23T01:30:57;2.00;99.90
16384;DHT22;8301;51.440;6.610;2023-01-23T01:33:26;2.00;99.90
16384;DHT22;8301;51.440;6.610;2023-01-23T01:35:53;2.00;99.90
16384;DHT22;8301;51.440;6.610;2023-01-23T01:38:24;2.00;99.90
16384;DHT22;8301;51.440;6.610;2023-01-23T01:40:51;2.10;99.90
16384;DHT22;8301;51.440;6.610;2023-01-23T01:43:22;2.10;99.90
16384;DHT22;8301;51.440;6.610;2023-01-23T01:54:08;2.20;99.90
16384;DHT22;8301;51.440;6.610;2023-01-23T01:56:42;2.20;99.90
16384;DHT22;8301;51.440;6.610;2023-01-23T01:59:09;2.20;99.90
16384;DHT22;8301;51.440;6.610;2023-01-23T02:01:38;2.20;99.90
16384;DHT22;8301;51.440;6.610;2023-01-23T02:04:08;2.20;99.90
16384;DHT22;8301;51.440;6.610;2023-01-23T02:06:37;2.20;99.90
16384;DHT22;8301;51.440;6.610;2023-01-23T02:09:10;2.20;99.90
16384;DHT22;8301;51.440;6.610;2023-01-23T02:11:38;2.20;99.90
16384;DHT22;8301;51.440;6.610;2023-01-23T02:14:05;2.20;99.90
16384;DHT22;8301;51.440;6.610;2023-01-23T02:16:35;2.20;99.90
16384;DHT22;8301;51.440;6.610;2023-01-23T02:19:14;2.20;99.90
16384;DHT22;8301;51.440;6.610;2023-01-23T02:21:36;2.20;99.90
16384;DHT22;8301;51.440;6.610;2023-01-23T02:26:52;2.20;99.90
16384;DHT22;8301;51.440;6.610;2023-01-23T02:29:20;2.20;99.90
16384;DHT22;8301;51.440;6.610;2023-01-23T02:31:48;2.20;99.90
16384;DHT22;8301;51.440;6.610;2023-01-23T02:34:19;2.20;99.90
16384;DHT22;8301;51.440;6.610;2023-01-23T02:36:48;2.20;99.90
16384;DHT22;8301;51.440;6.610;2023-01-23T02:39:20;2.20;99.90
16384;DHT22;8301;51.440;6.610;2023-01-23T02:41:50;2.20;99.90
16384;DHT22;8301;51.440;6.610;2023-01-23T02:44:23;2.20;99.90
16384;DHT22;8301;51.440;6.610;2023-01-23T02:46:54;2.20;99.90
16384;DHT22;8301;51.440;6.610;2023-01-23T02:49:21;2.20;99.90
16384;DHT22;8301;51.440;6.610;2023-01-23T02:51:50;2.20;99.90
16384;DHT22;8301;51.440;6.610;2023-01-23T02:54:19;2.30;99.90
16384;DHT22;8301;51.440;6.610;2023-01-23T02:56:46;2.30;99.90
16384;DHT22;8301;51.440;6.610;2023-01-23T02:59:14;2.30;99.90
16384;DHT22;8301;51.440;6.610;2023-01-23T03:01:59;2.30;99.90
16384;DHT22;8301;51.440;6.610;2023-01-23T03:04:27;2.30;99.90
16384;DHT22;8301;51.440;6.610;2023-01-23T03:06:56;2.30;99.90
16384;DHT22;8301;51.440;6.610;2023-01-23T03:09:25;2.30;99.90
16384;DHT22;8301;51.440;6.610;2023-01-23T03:11:52;2.30;99.90
16384;DHT22;8301;51.440;6.610;2023-01-23T03:14:21;2.30;99.90
16384;DHT22;8301;51.440;6.610;2023-01-23T03:16:49;2.30;99.90
16384;DHT22;8301;51.440;6.610;2023-01-23T03:19:21;2.30;99.90
16384;DHT22;8301;51.440;6.610;2023-01-23T03:21:50;2.20;99.90
16384;DHT22;8301;51.440;6.610;2023-01-23T03:24:18;2.20;99.90
16384;DHT22;8301;51.440;6.610;2023-01-23T03:26:47;2.20;99.90
16384;DHT22;8301;51.440;6.610;2023-01-23T03:29:21;2.10;99.90
16384;DHT22;8301;51.440;6.610;2023-01-23T03:32:08;2.00;99.90
16384;DHT22;8301;51.440;6.610;2023-01-23T03:34:36;2.00;99.90
16384;DHT22;8301;51.440;6.610;2023-01-23T03:37:04;1.90;99.90
16384;DHT22;8301;51.440;6.610;2023-01-23T03:39:33;1.90;99.90
16384;DHT22;8301;51.440;6.610;2023-01-23T03:42:20;1.90;99.90
16384;DHT22;8301;51.440;6.610;2023-01-23T03:44:50;1.90;99.90
16384;DHT22;8301;51.440;6.610;2023-01-23T03:47:17;1.90;99.90
16384;DHT22;8301;51.440;6.610;2023-01-23T03:49:46;2.00;99.90
16384;DHT22;8301;51.440;6.610;2023-01-23T03:52:14;2.00;99.90
16384;DHT22;8301;51.440;6.610;2023-01-23T03:54:41;2.00;99.90
16384;DHT22;8301;51.440;6.610;2023-01-23T03:57:09;2.00;99.90
16384;DHT22;8301;51.440;6.610;2023-01-23T03:59:37;2.10;99.90
16384;DHT22;8301;51.440;6.610;2023-01-23T04:02:04;2.10;99.90
16384;DHT22;8301;51.440;6.610;2023-01-23T04:04:33;2.10;99.90
16384;DHT22;8301;51.440;6.610;2023-01-23T04:07:01;2.10;99.90
16384;DHT22;8301;51.440;6.610;2023-01-23T04:09:30;2.10;99.90
16384;DHT22;8301;51.440;6.610;2023-01-23T04:11:58;2.20;99.90
16384;DHT22;8301;51.440;6.610;2023-01-23T04:14:27;2.10;99.90
16384;DHT22;8301;51.440;6.610;2023-01-23T04:17:00;2.20;99.90
16384;DHT22;8301;51.440;6.610;2023-01-23T04:19:28;2.20;99.90
16384;DHT22;8301;51.440;6.610;2023-01-23T04:21:56;2.20;99.90
16384;DHT22;8301;51.440;6.610;2023-01-23T04:24:24;2.20;99.90
16384;DHT22;8301;51.440;6.610;2023-01-23T04:26:52;2.20;99.90
16384;DHT22;8301;51.440;6.610;2023-01-23T04:29:19;2.20;99.90
16384;DHT22;8301;51.440;6.610;2023-01-23T04:31:47;2.10;99.90
16384;DHT22;8301;51.440;6.610;2023-01-23T04:34:14;2.10;99.90
16384;DHT22;8301;51.440;6.610;2023-01-23T04:36:42;2.20;99.90
16384;DHT22;8301;51.440;6.610;2023-01-23T04:39:09;2.20;99.90
16384;DHT22;8301;51.440;6.610;2023-01-23T04:41:37;2.20;99.90
16384;DHT22;8301;51.440;6.610;2023-01-23T04:44:04;2.20;99.90
16384;DHT22;8301;51.440;6.610;2023-01-23T04:46:48;2.20;99.90
16384;DHT22;8301;51.440;6.610;2023-01-23T04:49:16;2.20;99.90
16384;DHT22;8301;51.440;6.610;2023-01-23T04:51:46;2.20;99.90
16384;DHT22;8301;51.440;6.610;2023-01-23T04:54:16;2.20;99.90
16384;DHT22;8301;51.440;6.610;2023-01-23T04:56:44;2.30;99.90
16384;DHT22;8301;51.440;6.610;2023-01-23T04:59:12;2.30;99.90
16384;DHT22;8301;51.440;6.610;2023-01-23T05:01:40;2.30;99.90
16384;DHT22;8301;51.440;6.610;2023-01-23T05:04:07;2.30;99.90
16384;DHT22;8301;51.440;6.610;2023-01-23T05:06:35;2.30;99.90
16384;DHT22;8301;51.440;6.610;2023-01-23T05:09:02;2.30;99.90
16384;DHT22;8301;51.440;6.610;2023-01-23T05:11:30;2.30;99.90
16384;DHT22;8301;51.440;6.610;2023-01-23T05:13:58;2.30;99.90
16384;DHT22;8301;51.440;6.610;2023-01-23T05:16:26;2.30;99.90
16384;DHT22;8301;51.440;6.610;2023-01-23T05:18:54;2.40;99.90
16384;DHT22;8301;51.440;6.610;2023-01-23T05:21:21;2.40;99.90
16384;DHT22;8301;51.440;6.610;2023-01-23T05:23:49;2.40;99.90
16384;DHT22;8301;51.440;6.610;2023-01-23T05:26:16;2.40;99.90
16384;DHT22;8301;51.440;6.610;2023-01-23T05:28:44;2.40;99.90
16384;DHT22;8301;51.440;6.610;2023-01-23T05:31:12;2.40;99.90
16384;DHT22;8301;51.440;6.610;2023-01-23T05:33:39;2.40;99.90
16384;DHT22;8301;51.440;6.610;2023-01-23T05:36:07;2.50;99.90
16384;DHT22;8301;51.440;6.610;2023-01-23T05:38:35;2.50;99.90
16384;DHT22;8301;51.440;6.610;2023-01-23T05:41:03;2.50;99.90
16384;DHT22;8301;51.440;6.610;2023-01-23T05:43:31;2.50;99.90
16384;DHT22;8301;51.440;6.610;2023-01-23T05:46:00;2.50;99.90
16384;DHT22;8301;51.440;6.610;2023-01-23T05:48:28;2.50;99.90
16384;DHT22;8301;51.440;6.610;2023-01-23T05:50:56;2.50;99.90
16384;DHT22;8301;51.440;6.610;2023-01-23T05:53:25;2.50;99.90
16384;DHT22;8301;51.440;6.610;2023-01-23T05:55:52;2.50;99.90
16384;DHT22;8301;51.440;6.610;2023-01-23T05:58:20;2.40;99.90
16384;DHT22;8301;51.440;6.610;2023-01-23T06:00:47;2.40;99.90
16384;DHT22;8301;51.440;6.610;2023-01-23T06:03:15;2.40;99.90
16384;DHT22;8301;51.440;6.610;2023-01-23T06:05:42;2.40;99.90
16384;DHT22;8301;51.440;6.610;2023-01-23T06:08:10;2.40;99.90
16384;DHT22;8301;51.440;6.610;2023-01-23T06:10:37;2.30;99.90
16384;DHT22;8301;51.440;6.610;2023-01-23T06:13:05;2.30;99.90
16384;DHT22;8301;51.440;6.610;2023-01-23T06:15:33;2.30;99.90
16384;DHT22;8301;51.440;6.610;2023-01-23T06:18:00;2.30;99.90
16384;DHT22;8301;51.440;6.610;2023-01-23T06:20:28;2.30;99.90
16384;DHT22;8301;51.440;6.610;2023-01-23T06:22:57;2.30;99.90
16384;DHT22;8301;51.440;6.610;2023-01-23T06:25:25;2.30;99.90
16384;DHT22;8301;51.440;6.610;2023-01-23T06:27:53;2.30;99.90
16384;DHT22;8301;51.440;6.610;2023-01-23T06:30:21;2.30;99.90
16384;DHT22;8301;51.440;6.610;2023-01-23T06:32:48;2.30;99.90
16384;DHT22;8301;51.440;6.610;2023-01-23T06:35:16;2.30;99.90
16384;DHT22;8301;51.440;6.610;2023-01-23T06:37:44;2.30;99.90
16384;DHT22;8301;51.440;6.610;2023-01-23T06:40:12;2.40;99.90
16384;DHT22;8301;51.440;6.610;2023-01-23T06:42:40;2.40;99.90
16384;DHT22;8301;51.440;6.610;2023-01-23T06:45:09;2.40;99.90
16384;DHT22;8301;51.440;6.610;2023-01-23T06:47:37;2.40;99.90
16384;DHT22;8301;51.440;6.610;2023-01-23T06:50:05;2.40;99.90
16384;DHT22;8301;51.440;6.610;2023-01-23T06:52:34;2.30;99.90
16384;DHT22;8301;51.440;6.610;2023-01-23T06:55:02;2.40;99.90
16384;DHT22;8301;51.440;6.610;2023-01-23T06:57:30;2.40;99.90
16384;DHT22;8301;51.440;6.610;2023-01-23T06:59:57;2.40;99.90
16384;DHT22;8301;51.440;6.610;2023-01-23T07:02:25;2.40;99.90
16384;DHT22;8301;51.440;6.610;2023-01-23T07:04:52;2.40;99.90
16384;DHT22;8301;51.440;6.610;2023-01-23T07:07:25;2.40;99.90
16384;DHT22;8301;51.440;6.610;2023-01-23T07:09:53;2.40;99.90
16384;DHT22;8301;51.440;6.610;2023-01-23T07:12:21;2.40;99.90
16384;DHT22;8301;51.440;6.610;2023-01-23T07:14:49;2.40;99.90
16384;DHT22;8301;51.440;6.610;2023-01-23T07:17:17;2.40;99.90
16384;DHT22;8301;51.440;6.610;2023-01-23T07:19:46;2.30;99.90
16384;DHT22;8301;51.440;6.610;2023-01-23T07:22:20;2.40;99.90
16384;DHT22;8301;51.440;6.610;2023-01-23T07:24:44;2.30;99.90
16384;DHT22;8301;51.440;6.610;2023-01-23T07:27:13;2.40;99.90
16384;DHT22;8301;51.440;6.610;2023-01-23T07:29:41;2.50;99.90
16384;DHT22;8301;51.440;6.610;2023-01-23T07:32:08;2.50;99.90
16384;DHT22;8301;51.440;6.610;2023-01-23T07:34:37;2.50;99.90
16384;DHT22;8301;51.440;6.610;2023-01-23T07:37:06;2.50;99.90
16384;DHT22;8301;51.440;6.610;2023-01-23T07:39:35;2.50;99.90
16384;DHT22;8301;51.440;6.610;2023-01-23T07:42:03;2.50;99.90
16384;DHT22;8301;51.440;6.610;2023-01-23T07:44:30;2.50;99.90
16384;DHT22;8301;51.440;6.610;2023-01-23T07:47:02;2.50;99.90
16384;DHT22;8301;51.440;6.610;2023-01-23T07:49:29;2.50;99.90
16384;DHT22;8301;51.440;6.610;2023-01-23T07:51:59;2.50;99.90
16384;DHT22;8301;51.440;6.610;2023-01-23T07:54:27;2.50;99.90
16384;DHT22;8301;51.440;6.610;2023-01-23T07:56:55;2.60;99.90
16384;DHT22;8301;51.440;6.610;2023-01-23T07:59:23;2.60;99.90
16384;DHT22;8301;51.440;6.610;2023-01-23T08:01:51;2.60;99.90
16384;DHT22;8301;51.440;6.610;2023-01-23T08:04:22;2.60;99.90
16384;DHT22;8301;51.440;6.610;2023-01-23T08:06:51;2.60;99.90
16384;DHT22;8301;51.440;6.610;2023-01-23T08:09:18;2.60;99.90
16384;DHT22;8301;51.440;6.610;2023-01-23T08:11:46;2.60;99.90
16384;DHT22;8301;51.440;6.610;2023-01-23T08:14:13;2.60;99.90
16384;DHT22;8301;51.440;6.610;2023-01-23T08:16:42;2.60;99.90
16384;DHT22;8301;51.440;6.610;2023-01-23T08:19:11;2.70;99.90
16384;DHT22;8301;51.440;6.610;2023-01-23T08:21:39;2.70;99.90
16384;DHT22;8301;51.440;6.610;2023-01-23T08:24:10;2.70;99.90
16384;DHT22;8301;51.440;6.610;2023-01-23T08:26:37;2.70;99.90
16384;DHT22;8301;51.440;6.610;2023-01-23T08:29:05;2.70;99.90
16384;DHT22;8301;51.440;6.610;2023-01-23T08:31:33;2.70;99.90
16384;DHT22;8301;51.440;6.610;2023-01-23T08:34:01;2.80;99.90
16384;DHT22;8301;51.440;6.610;2023-01-23T08:36:29;2.80;99.90
16384;DHT22;8301;51.440;6.610;2023-01-23T08:38:56;2.80;99.90
16384;DHT22;8301;51.440;6.610;2023-01-23T08:41:24;2.80;99.90
16384;DHT22;8301;51.440;6.610;2023-01-23T08:43:52;2.90;99.90
16384;DHT22;8301;51.440;6.610;2023-01-23T08:46:20;2.90;99.90
16384;DHT22;8301;51.440;6.610;2023-01-23T08:48:48;2.90;99.90
16384;DHT22;8301;51.440;6.610;2023-01-23T08:51:15;2.90;99.90
16384;DHT22;8301;51.440;6.610;2023-01-23T08:53:43;2.90;99.90
16384;DHT22;8301;51.440;6.610;2023-01-23T08:56:20;2.90;99.90
16384;DHT22;8301;51.440;6.610;2023-01-23T08:58:50;2.90;99.90
16384;DHT22;8301;51.440;6.610;2023-01-23T09:01:26;2.90;99.90
16384;DHT22;8301;51.440;6.610;2023-01-23T09:03:55;2.90;99.90
16384;DHT22;8301;51.440;6.610;2023-01-23T09:06:23;3.00;99.90
16384;DHT22;8301;51.440;6.610;2023-01-23T09:08:50;3.00;99.90
16384;DHT22;8301;51.440;6.610;2023-01-23T09:11:18;3.00;99.90
16384;DHT22;8301;51.440;6.610;2023-01-23T09:13:48;3.00;99.90
16384;DHT22;8301;51.440;6.610;2023-01-23T09:16:16;3.00;99.90
16384;DHT22;8301;51.440;6.610;2023-01-23T09:18:44;3.10;99.90
16384;DHT22;8301;51.440;6.610;2023-01-23T09:21:15;3.10;99.90
16384;DHT22;8301;51.440;6.610;2023-01-23T09:23:45;3.20;99.90
16384;DHT22;8301;51.440;6.610;2023-01-23T09:26:13;3.10;99.90
16384;DHT22;8301;51.440;6.610;2023-01-23T09:28:41;3.10;99.90
16384;DHT22;8301;51.440;6.610;2023-01-23T09:31:10;3.10;99.90
16384;DHT22;8301;51.440;6.610;2023-01-23T09:33:38;3.10;99.90
16384;DHT22;8301;51.440;6.610;2023-01-23T09:36:07;3.10;99.90
16384;DHT22;8301;51.440;6.610;2023-01-23T09:38:35;3.10;99.90
16384;DHT22;8301;51.440;6.610;2023-01-23T09:41:17;3.10;99.90
16384;DHT22;8301;51.440;6.610;2023-01-23T09:44:03;3.10;99.90
16384;DHT22;8301;51.440;6.610;2023-01-23T09:46:38;3.00;99.90
16384;DHT22;8301;51.440;6.610;2023-01-23T09:49:19;3.10;99.90
16384;DHT22;8301;51.440;6.610;2023-01-23T09:52:06;3.10;99.90
16384;DHT22;8301;51.440;6.610;2023-01-23T09:54:56;3.10;99.90
16384;DHT22;8301;51.440;6.610;2023-01-23T09:57:32;3.10;99.90
16384;DHT22;8301;51.440;6.610;2023-01-23T10:00:04;3.10;99.90
16384;DHT22;8301;51.440;6.610;2023-01-23T10:02:32;3.10;99.90
16384;DHT22;8301;51.440;6.610;2023-01-23T10:18:30;3.20;99.90
16384;DHT22;8301;51.440;6.610;2023-01-23T10:26:10;3.20;99.90
16384;DHT22;8301;51.440;6.610;2023-01-23T10:28:37;3.20;99.90
16384;DHT22;8301;51.440;6.610;2023-01-23T10:31:31;3.20;99.90
16384;DHT22;8301;51.440;6.610;2023-01-23T10:34:13;3.30;99.90
16384;DHT22;8301;51.440;6.610;2023-01-23T10:36:58;3.40;99.90
16384;DHT22;8301;51.440;6.610;2023-01-23T10:39:42;3.50;99.90
16384;DHT22;8301;51.440;6.610;2023-01-23T10:42:01;3.40;99.90
16384;DHT22;8301;51.440;6.610;2023-01-23T10:44:32;3.40;99.90
16384;DHT22;8301;51.440;6.610;2023-01-23T10:47:02;3.40;99.90
16384;DHT22;8301;51.440;6.610;2023-01-23T10:49:35;3.50;99.90
16384;DHT22;8301;51.440;6.610;2023-01-23T10:52:27;3.50;99.90
16384;DHT22;8301;51.440;6.610;2023-01-23T10:54:44;3.40;99.90
16384;DHT22;8301;51.440;6.610;2023-01-23T10:59:55;3.50;99.90
16384;DHT22;8301;51.440;6.610;2023-01-23T11:02:28;3.50;99.90
16384;DHT22;8301;51.440;6.610;2023-01-23T11:04:56;3.50;99.90
16384;DHT22;8301;51.440;6.610;2023-01-23T11:07:30;3.50;99.90
16384;DHT22;8301;51.440;6.610;2023-01-23T11:10:01;3.50;99.90
16384;DHT22;8301;51.440;6.610;2023-01-23T11:12:33;3.50;99.90
16384;DHT22;8301;51.440;6.610;2023-01-23T11:17:55;3.60;99.90
16384;DHT22;8301;51.440;6.610;2023-01-23T11:20:39;3.50;99.90
16384;DHT22;8301;51.440;6.610;2023-01-23T11:23:15;3.60;99.90
16384;DHT22;8301;51.440;6.610;2023-01-23T11:25:48;3.60;99.90
16384;DHT22;8301;51.440;6.610;2023-01-23T11:28:25;3.70;99.90
16384;DHT22;8301;51.440;6.610;2023-01-23T11:31:14;3.60;99.90
16384;DHT22;8301;51.440;6.610;2023-01-23T11:33:49;3.60;99.90
16384;DHT22;8301;51.440;6.610;2023-01-23T11:39:08;3.60;99.90
16384;DHT22;8301;51.440;6.610;2023-01-23T11:41:32;3.60;99.90
16384;DHT22;8301;51.440;6.610;2023-01-23T11:44:14;3.60;99.90
16384;DHT22;8301;51.440;6.610;2023-01-23T11:49:44;3.60;99.90
16384;DHT22;8301;51.440;6.610;2023-01-23T11:52:17;3.70;99.90
16384;DHT22;8301;51.440;6.610;2023-01-23T11:54:59;3.70;99.90
16384;DHT22;8301;51.440;6.610;2023-01-23T11:57:38;3.70;99.90
16384;DHT22;8301;51.440;6.610;2023-01-23T12:07:58;3.70;99.90
16384;DHT22;8301;51.440;6.610;2023-01-23T12:10:25;3.70;99.90
16384;DHT22;8301;51.440;6.610;2023-01-23T12:15:42;3.70;99.90
16384;DHT22;8301;51.440;6.610;2023-01-23T12:21:08;3.70;99.90
16384;DHT22;8301;51.440;6.610;2023-01-23T12:23:43;3.70;99.90
16384;DHT22;8301;51.440;6.610;2023-01-23T12:26:16;3.70;99.90
16384;DHT22;8301;51.440;6.610;2023-01-23T12:37:22;3.70;99.90
16384;DHT22;8301;51.440;6.610;2023-01-23T12:42:31;3.70;99.90
16384;DHT22;8301;51.440;6.610;2023-01-23T12:45:05;3.80;99.90
16384;DHT22;8301;51.440;6.610;2023-01-23T12:47:53;3.80;99.90
16384;DHT22;8301;51.440;6.610;2023-01-23T12:50:44;3.80;99.90
16384;DHT22;8301;51.440;6.610;2023-01-23T12:53:15;3.80;99.90
16384;DHT22;8301;51.440;6.610;2023-01-23T12:55:57;3.70;99.90
16384;DHT22;8301;51.440;6.610;2023-01-23T12:58:28;3.70;99.90
16384;DHT22;8301;51.440;6.610;2023-01-23T13:01:19;3.70;99.90
16384;DHT22;8301;51.440;6.610;2023-01-23T13:03:52;3.70;99.90
16384;DHT22;8301;51.440;6.610;2023-01-23T13:06:31;3.70;99.90
16384;DHT22;8301;51.440;6.610;2023-01-23T13:09:05;3.80;99.90
16384;DHT22;8301;51.440;6.610;2023-01-23T13:11:39;3.80;99.90
16384;DHT22;8301;51.440;6.610;2023-01-23T13:14:17;3.80;1.00
16384;DHT22;8301;51.440;6.610;2023-01-23T13:16:47;3.90;1.00
16384;DHT22;8301;51.440;6.610;2023-01-23T13:19:30;3.90;1.00
16384;DHT22;8301;51.440;6.610;2023-01-23T13:27:53;3.90;1.00
16384;DHT22;8301;51.440;6.610;2023-01-23T13:32:57;3.90;1.00
16384;DHT22;8301;51.440;6.610;2023-01-23T13:38:28;3.90;1.00
16384;DHT22;8301;51.440;6.610;2023-01-23T13:43:52;3.80;1.00
16384;DHT22;8301;51.440;6.610;2023-01-23T13:52:28;3.70;1.00
16384;DHT22;8301;51.440;6.610;2023-01-23T13:55:39;3.70;1.00
16384;DHT22;8301;51.440;6.610;2023-01-23T13:58:24;3.70;3.60
16384;DHT22;8301;51.440;6.610;2023-01-23T14:00:50;3.70;1.00
16384;DHT22;8301;51.440;6.610;2023-01-23T14:03:28;3.80;1.00
16384;DHT22;8301;51.440;6.610;2023-01-23T14:06:14;3.80;1.00
16384;DHT22;8301;51.440;6.610;2023-01-23T14:11:19;3.80;1.00
16384;DHT22;8301;51.440;6.610;2023-01-23T14:13:49;3.80;1.00
16384;DHT22;8301;51.440;6.610;2023-01-23T14:16:19;3.80;1.00
16384;DHT22;8301;51.440;6.610;2023-01-23T14:19:00;3.80;1.00
16384;DHT22;8301;51.440;6.610;2023-01-23T14:21:30;3.80;1.00
16384;DHT22;8301;51.440;6.610;2023-01-23T14:24:01;3.80;1.00
16384;DHT22;8301;51.440;6.610;2023-01-23T14:26:31;3.80;1.00
16384;DHT22;8301;51.440;6.610;2023-01-23T14:29:01;3.80;1.00
16384;DHT22;8301;51.440;6.610;2023-01-23T14:31:31;3.80;1.00
16384;DHT22;8301;51.440;6.610;2023-01-23T14:34:04;3.80;1.00
16384;DHT22;8301;51.440;6.610;2023-01-23T14:36:35;3.90;1.00
16384;DHT22;8301;51.440;6.610;2023-01-23T14:39:04;3.80;1.00
16384;DHT22;8301;51.440;6.610;2023-01-23T14:41:34;3.80;1.00
16384;DHT22;8301;51.440;6.610;2023-01-23T14:44:03;3.90;1.00
16384;DHT22;8301;51.440;6.610;2023-01-23T14:46:33;3.80;1.00
16384;DHT22;8301;51.440;6.610;2023-01-23T14:49:02;3.80;1.00
16384;DHT22;8301;51.440;6.610;2023-01-23T14:51:30;3.80;1.00
16384;DHT22;8301;51.440;6.610;2023-01-23T14:54:00;3.80;1.00
16384;DHT22;8301;51.440;6.610;2023-01-23T14:56:33;3.80;1.00
16384;DHT22;8301;51.440;6.610;2023-01-23T14:59:20;3.80;1.00
16384;DHT22;8301;51.440;6.610;2023-01-23T15:01:38;3.80;1.00
16384;DHT22;8301;51.440;6.610;2023-01-23T15:04:18;3.80;1.00
16384;DHT22;8301;51.440;6.610;2023-01-23T15:20:54;3.70;33.10
16384;DHT22;8301;51.440;6.610;2023-01-23T15:23:30;3.70;62.80
16384;DHT22;8301;51.440;6.610;2023-01-23T15:31:30;3.70;70.10
16384;DHT22;8301;51.440;6.610;2023-01-23T15:34:21;3.60;96.50
16384;DHT22;8301;51.440;6.610;2023-01-23T15:39:50;3.60;1.00
16384;DHT22;8301;51.440;6.610;2023-01-23T15:44:43;3.60;1.00
16384;DHT22;8301;51.440;6.610;2023-01-23T15:47:11;3.60;1.00
16384;DHT22;8301;51.440;6.610;2023-01-23T15:49:39;3.60;1.00
16384;DHT22;8301;51.440;6.610;2023-01-23T15:52:28;3.60;1.00
16384;DHT22;8301;51.440;6.610;2023-01-23T15:55:02;3.60;1.00
16384;DHT22;8301;51.440;6.610;2023-01-23T15:57:30;3.70;41.80
16384;DHT22;8301;51.440;6.610;2023-01-23T15:59:57;3.60;32.40
16384;DHT22;8301;51.440;6.610;2023-01-23T16:02:26;3.60;10.20
16384;DHT22;8301;51.440;6.610;2023-01-23T16:04:54;3.60;33.50
16384;DHT22;8301;51.440;6.610;2023-01-23T16:07:29;3.60;43.90
16384;DHT22;8301;51.440;6.610;2023-01-23T16:09:56;3.60;1.00
16384;DHT22;8301;51.440;6.610;2023-01-23T16:12:26;3.60;96.00
16384;DHT22;8301;51.440;6.610;2023-01-23T16:14:54;3.60;30.00
16384;DHT22;8301;51.440;6.610;2023-01-23T16:17:22;3.50;48.00
16384;DHT22;8301;51.440;6.610;2023-01-23T16:19:50;3.50;2.70
16384;DHT22;8301;51.440;6.610;2023-01-23T16:22:25;3.50;25.90
16384;DHT22;8301;51.440;6.610;2023-01-23T16:24:55;3.50;1.00
16384;DHT22;8301;51.440;6.610;2023-01-23T16:27:22;3.50;1.00
16384;DHT22;8301;51.440;6.610;2023-01-23T16:29:55;3.50;1.00
16384;DHT22;8301;51.440;6.610;2023-01-23T16:35:16;3.50;1.00
16384;DHT22;8301;51.440;6.610;2023-01-23T16:37:49;3.50;1.00
16384;DHT22;8301;51.440;6.610;2023-01-23T16:40:29;3.50;1.00
16384;DHT22;8301;51.440;6.610;2023-01-23T16:42:58;3.40;25.70
16384;DHT22;8301;51.440;6.610;2023-01-23T16:45:30;3.40;1.00
16384;DHT22;8301;51.440;6.610;2023-01-23T16:47:58;3.50;1.00
16384;DHT22;8301;51.440;6.610;2023-01-23T16:50:31;3.50;1.00
16384;DHT22;8301;51.440;6.610;2023-01-23T16:53:05;3.50;1.00
16384;DHT22;8301;51.440;6.610;2023-01-23T16:55:38;3.50;1.00
16384;DHT22;8301;51.440;6.610;2023-01-23T16:58:11;3.50;1.00
16384;DHT22;8301;51.440;6.610;2023-01-23T17:00:39;3.50;1.00
16384;DHT22;8301;51.440;6.610;2023-01-23T17:03:08;3.50;1.00
16384;DHT22;8301;51.440;6.610;2023-01-23T17:05:36;3.50;1.00
16384;DHT22;8301;51.440;6.610;2023-01-23T17:08:19;3.50;1.00
16384;DHT22;8301;51.440;6.610;2023-01-23T17:10:55;3.50;1.00
16384;DHT22;8301;51.440;6.610;2023-01-23T17:13:19;3.40;9.50
16384;DHT22;8301;51.440;6.610;2023-01-23T17:15:49;3.50;1.00
16384;DHT22;8301;51.440;6.610;2023-01-23T17:18:28;3.50;1.00
16384;DHT22;8301;51.440;6.610;2023-01-23T17:20:58;3.50;1.00
16384;DHT22;8301;51.440;6.610;2023-01-23T17:23:25;3.50;1.00
16384;DHT22;8301;51.440;6.610;2023-01-23T17:25:53;3.40;1.00
16384;DHT22;8301;51.440;6.610;2023-01-23T17:28:20;3.40;1.00
16384;DHT22;8301;51.440;6.610;2023-01-23T17:30:50;3.40;1.00
16384;DHT22;8301;51.440;6.610;2023-01-23T17:33:27;3.40;1.00
16384;DHT22;8301;51.440;6.610;2023-01-23T17:35:56;3.40;1.00
16384;DHT22;8301;51.440;6.610;2023-01-23T17:38:26;3.40;1.00
16384;DHT22;8301;51.440;6.610;2023-01-23T17:40:56;3.40;1.00
16384;DHT22;8301;51.440;6.610;2023-01-23T17:43:24;3.40;1.00
16384;DHT22;8301;51.440;6.610;2023-01-23T17:45:52;3.40;1.00
16384;DHT22;8301;51.440;6.610;2023-01-23T17:48:25;3.40;1.00
16384;DHT22;8301;51.440;6.610;2023-01-23T17:50:53;3.40;11.20
16384;DHT22;8301;51.440;6.610;2023-01-23T17:53:21;3.30;22.50
16384;DHT22;8301;51.440;6.610;2023-01-23T17:55:49;3.20;75.80
16384;DHT22;8301;51.440;6.610;2023-01-23T17:58:18;3.30;93.10
16384;DHT22;8301;51.440;6.610;2023-01-23T18:00:49;3.30;90.20
16384;DHT22;8301;51.440;6.610;2023-01-23T18:03:22;3.40;91.20
16384;DHT22;8301;51.440;6.610;2023-01-23T18:05:52;3.40;47.10
16384;DHT22;8301;51.440;6.610;2023-01-23T18:08:20;3.30;46.20
16384;DHT22;8301;51.440;6.610;2023-01-23T18:10:51;3.30;99.90
16384;DHT22;8301;51.440;6.610;2023-01-23T18:13:42;3.40;92.00
16384;DHT22;8301;51.440;6.610;2023-01-23T18:16:31;3.30;86.30
16384;DHT22;8301;51.440;6.610;2023-01-23T18:19:15;3.40;15.10
16384;DHT22;8301;51.440;6.610;2023-01-23T18:21:44;3.30;99.90
16384;DHT22;8301;51.440;6.610;2023-01-23T18:24:21;3.30;86.30